Broadbent, OR (97414)

5:50 PM PDT on August 29, 2015 (GMT -0700)
Pelennor Fields | | Change Station
CLOSE
Current Station
Personal Weather Station
Location: Powers, OR
Elevation: 243 ft
Nearby Weather Stations

Elev 243 ft 42.89 °N, 124.07 °W | Updated 14 minutes ago

Overcast
Overcast
70.7 °F
Feels Like 75 °F
N
2.7
Wind Variable Wind from South

Today
High -- | Low -- °F
--% Chance of Precip.
Yesterday
High -- | Low -- °F
Precip. -- in
6:37 AM 7:56 PM
Full, 100% visible
Pressure 29.91 in
Visibility 10.0 miles
Clouds Mostly Cloudy 1500 ft
Mostly Cloudy 4100 ft
Heat Index 75 °F
Dew Point 58 °F
Humidity 65%
Rainfall 0.00 in
Snow Depth Not available.
UV 1 out of 12
Pollen 1.80 out of 12
Air Quality Not available.
Flu Activity Not available.
METAR KOTH 300035Z 20013G21KT 10SM BKN015 BKN041 19/17 A2991 RMK AO1
Pressure 29.91 in
Visibility 10.0 miles
Clouds Mostly Cloudy 1500 ft
Mostly Cloudy 4100 ft
Heat Index 75 °F
Dew Point 58 °F
Humidity 65%
Rainfall 0.00 in
Snow Depth Not available.
UV 1 out of 12
Pollen 1.80 out of 12
Air Quality Not available.
Flu Activity Not available.
METAR KOTH 300035Z 20013G21KT 10SM BKN015 BKN041 19/17 A2991 RMK AO1

10-Day Weather Forecast

×

Almanac

Astronomy

Aug. 29, 2015 Rise Set
Actual Time
Civil Twilight
Nautical Twilight
Astronomical Twilight
Moon
Length of Visible Light
Length of Day
Tomorrow will be .
, % of the Moon is Illuminated

Today's Extremes

State Highs State Lows

Community

WunderPhotos

Upload Photos

1,850,813 photos uploaded!

WunderBlogs® & News

Nearby

Air Quality

  Air Quality AQ Index Pollutant
Not available.

Snow Depth

Station Depth Elevation

Earthquake Activity

City Distance Mag. Time & Date
Minimum magnitude displayed is 2.5.

Coastal Water Temperatures

Place Temperature

Stations

Nearby Weather Stations

Station Location Temp. Windchill Dew Point Humidity Wind Precip. Elev Updated Type